Time;durP1;ratioP1;P1;durP2;ratioP2;P2;SDS_P1;SDS_P2;PMS_P1;PMS_P2;Temp;Humidity;BMP_temperature;BMP_pressure;BME280_temperature;BME280_humidity;BME280_pressure;Samples;Min_cycle;Max_cycle;Signal;HPM_P1;HPM_P2
2023/05/06 00:01:57;;;;;;;5.75;5.25;;;;;;;9.31;100.00;62963.84;5024338;28;20294;-71
2023/05/06 00:04:24;;;;;;;5.97;4.85;;;;;;;9.30;100.00;62955.19;5023042;28;20198;-72
2023/05/06 00:06:51;;;;;;;7.15;5.05;;;;;;;9.33;100.00;62958.31;5021246;28;20461;-74
2023/05/06 00:09:18;;;;;;;5.75;5.25;;;;;;;9.33;100.00;62960.84;5022065;28;20454;-72
2023/05/06 00:11:46;;;;;;;6.40;5.80;;;;;;;9.26;100.00;62955.63;5023262;28;20229;-72
2023/05/06 00:14:13;;;;;;;5.57;5.05;;;;;;;9.22;100.00;62949.47;5023996;28;20381;-72
2023/05/06 00:16:40;;;;;;;5.28;4.78;;;;;;;9.21;100.00;62950.97;5010657;28;20555;-72
2023/05/06 00:19:08;;;;;;;5.38;4.88;;;;;;;9.19;100.00;62940.75;5007811;28;20486;-72
2023/05/06 00:21:35;;;;;;;5.03;4.63;;;;;;;9.15;100.00;62939.69;5022262;28;20522;-72
2023/05/06 00:24:03;;;;;;;8.30;5.22;;;;;;;9.11;100.00;62940.63;5026744;28;20205;-72
2023/05/06 00:26:30;;;;;;;5.38;4.90;;;;;;;9.08;100.00;62935.00;5022379;28;20538;-72
2023/05/06 00:28:57;;;;;;;5.70;5.18;;;;;;;9.03;100.00;62929.81;5025499;28;20380;-72
2023/05/06 00:31:24;;;;;;;5.75;5.25;;;;;;;9.02;100.00;62931.34;5026466;28;20240;-71
2023/05/06 00:33:51;;;;;;;6.70;5.00;;;;;;;9.03;100.00;62931.84;5025333;28;20226;-72
2023/05/06 00:36:20;;;;;;;6.15;5.65;;;;;;;9.03;100.00;62929.31;5014461;28;20231;-71
2023/05/06 00:38:47;;;;;;;7.80;6.07;;;;;;;9.06;100.00;62932.41;5007239;28;20200;-72
2023/05/06 00:41:17;;;;;;;10.15;6.25;;;;;;;9.02;100.00;62926.25;5006972;28;20238;-72
2023/05/06 00:43:44;;;;;;;6.45;5.53;;;;;;;9.02;100.00;62928.81;5024103;28;20221;-72
2023/05/06 00:46:11;;;;;;;5.80;5.30;;;;;;;8.99;100.00;62922.66;5026093;28;20219;-72
2023/05/06 00:48:39;;;;;;;5.60;5.10;;;;;;;8.97;100.00;62926.16;5027013;28;20543;-71
2023/05/06 00:51:06;;;;;;;8.43;6.05;;;;;;;8.95;100.00;62919.03;5025466;28;20554;-71
2023/05/06 00:53:34;;;;;;;5.65;5.15;;;;;;;8.93;100.00;62918.97;5015825;28;20223;-72
2023/05/06 00:56:02;;;;;;;5.78;5.15;;;;;;;8.93;100.00;62916.44;5025187;28;20218;-72
2023/05/06 00:58:29;;;;;;;5.75;5.07;;;;;;;8.88;100.00;62914.31;5026087;28;20198;-71
2023/05/06 01:00:57;;;;;;;5.88;5.18;;;;;;;8.89;100.00;62912.28;5022330;28;20295;-72
2023/05/06 01:03:24;;;;;;;7.38;5.03;;;;;;;8.83;100.00;62911.19;5026783;28;20247;-73
2023/05/06 01:05:59;;;;;;;5.40;4.95;;;;;;;8.80;100.00;62903.50;5026365;28;20201;-71
2023/05/06 01:08:32;;;;;;;6.70;5.32;;;;;;;8.71;100.00;62894.22;5025409;28;20199;-71
2023/05/06 01:11:08;;;;;;;5.65;5.22;;;;;;;8.70;100.00;62898.25;5006676;28;20203;-72
2023/05/06 01:13:43;;;;;;;6.40;5.32;;;;;;;8.68;100.00;62898.72;5006555;28;20289;-72
2023/05/06 01:16:12;;;;;;;5.80;5.20;;;;;;;8.70;100.00;62897.72;5015949;28;20288;-74
2023/05/06 01:18:41;;;;;;;6.78;6.03;;;;;;;8.66;100.00;62891.06;5016246;28;20455;-71
2023/05/06 01:21:09;;;;;;;5.30;4.80;;;;;;;8.69;100.00;62891.63;5026075;28;20210;-71
2023/05/06 01:23:54;;;;;;;6.70;6.03;;;;;;;8.71;100.00;62898.78;5025359;28;20202;-72
2023/05/06 01:26:21;;;;;;;6.75;5.05;;;;;;;8.75;100.00;62902.91;5025540;28;20218;-72
2023/05/06 01:28:48;;;;;;;5.88;5.13;;;;;;;8.72;100.00;62897.78;5014323;28;20198;-72
2023/05/06 01:31:23;;;;;;;5.05;4.65;;;;;;;8.69;100.00;62889.63;5025580;28;20219;-71
2023/05/06 01:33:58;;;;;;;7.75;5.78;;;;;;;8.66;100.00;62891.56;5026056;28;20234;-72
2023/05/06 01:36:32;;;;;;;5.13;4.60;;;;;;;8.59;100.00;62881.81;5024105;28;20285;-73
2023/05/06 01:39:09;;;;;;;5.93;5.32;;;;;;;8.63;100.00;62885.44;5025192;28;20487;-72
2023/05/06 01:41:40;;;;;;;5.43;4.97;;;;;;;8.65;100.00;62890.56;5025665;28;20218;-72
2023/05/06 01:44:08;;;;;;;6.43;5.65;;;;;;;8.67;100.00;62890.09;5026239;28;20281;-73
2023/05/06 01:46:36;;;;;;;5.97;5.40;;;;;;;8.65;100.00;62885.47;5009685;28;20262;-72
2023/05/06 01:49:06;;;;;;;5.90;4.38;;;;;;;8.69;100.00;62894.16;5022424;28;20498;-72
2023/05/06 01:51:34;;;;;;;7.05;4.70;;;;;;;8.72;100.00;62895.25;5025136;28;20225;-72
2023/05/06 01:54:02;;;;;;;7.45;5.05;;;;;;;8.66;100.00;62889.03;5024093;28;20262;-71
2023/05/06 01:56:30;;;;;;;5.35;4.90;;;;;;;8.71;100.00;62894.22;5010932;28;20464;-72
2023/05/06 01:58:58;;;;;;;5.05;4.65;;;;;;;8.70;100.00;62895.19;5023986;28;20194;-71
2023/05/06 02:01:25;;;;;;;5.13;4.65;;;;;;;8.72;100.00;62899.81;5024619;28;20230;-71
2023/05/06 02:03:52;;;;;;;5.80;5.30;;;;;;;8.72;100.00;62897.78;5023098;28;20214;-71
2023/05/06 02:06:19;;;;;;;6.78;4.13;;;;;;;8.74;100.00;62899.84;5024097;28;20458;-72
2023/05/06 02:08:46;;;;;;;5.82;5.20;;;;;;;8.76;100.00;62898.88;5025553;28;20438;-71
2023/05/06 02:11:14;;;;;;;5.30;4.80;;;;;;;8.81;100.00;62909.09;5024823;28;20264;-72
2023/05/06 02:13:41;;;;;;;5.28;4.22;;;;;;;8.83;100.00;62903.56;5019032;28;20551;-72
2023/05/06 02:16:08;;;;;;;4.85;4.47;;;;;;;8.82;100.00;62903.03;5025416;28;20209;-72
2023/05/06 02:18:35;;;;;;;4.93;4.53;;;;;;;8.80;100.00;62900.97;5025018;28;20210;-71
2023/05/06 02:21:03;;;;;;;6.07;5.47;;;;;;;8.77;100.00;62900.41;5017349;28;20211;-71
2023/05/06 02:23:30;;;;;;;5.43;4.93;;;;;;;8.83;100.00;62906.63;5012511;28;20330;-73
2023/05/06 02:25:58;;;;;;;5.68;4.82;;;;;;;8.83;100.00;62906.63;5013659;28;20308;-72
2023/05/06 02:28:28;;;;;;;6.00;5.20;;;;;;;8.82;100.00;62905.56;5025050;28;20370;-72
2023/05/06 02:30:55;;;;;;;5.88;5.28;;;;;;;8.81;100.00;62907.09;5014407;28;20213;-71
2023/05/06 02:33:22;;;;;;;5.38;4.88;;;;;;;8.77;100.00;62902.44;5012251;28;20230;-72
2023/05/06 02:35:50;;;;;;;6.93;4.82;;;;;;;8.79;100.00;62907.56;5024724;28;20215;-72
2023/05/06 02:38:17;;;;;;;5.45;4.95;;;;;;;8.84;100.00;62910.19;5024896;28;20221;-73
2023/05/06 02:40:44;;;;;;;5.00;4.60;;;;;;;8.73;100.00;62896.28;5007534;28;20404;-73
2023/05/06 02:43:11;;;;;;;6.78;5.07;;;;;;;8.67;100.00;62892.63;5004935;28;20246;-72
2023/05/06 02:45:39;;;;;;;5.30;4.80;;;;;;;8.62;100.00;62884.41;5004453;28;20202;-72
2023/05/06 02:48:07;;;;;;;5.85;5.32;;;;;;;8.62;100.00;62887.47;5011242;28;20231;-72
2023/05/06 02:50:35;;;;;;;6.20;5.60;;;;;;;8.58;100.00;62882.78;5022703;28;20206;-71
2023/05/06 02:53:02;;;;;;;6.30;5.70;;;;;;;8.62;100.00;62887.47;5024023;28;20272;-72
2023/05/06 02:55:29;;;;;;;5.22;4.78;;;;;;;8.60;100.00;62887.41;5024156;28;20207;-72
2023/05/06 02:57:56;;;;;;;6.18;5.57;;;;;;;8.60;100.00;62884.88;5014542;28;20219;-72
2023/05/06 03:00:23;;;;;;;5.43;5.03;;;;;;;8.62;100.00;62884.41;5006256;28;20203;-73
2023/05/06 03:02:51;;;;;;;5.28;4.80;;;;;;;8.64;100.00;62884.44;5004173;28;20318;-73
2023/05/06 03:05:19;;;;;;;6.03;5.25;;;;;;;8.69;100.00;62891.63;5004424;28;20275;-72
2023/05/06 03:07:46;;;;;;;5.63;5.13;;;;;;;8.72;100.00;62897.25;5012250;28;20262;-71
2023/05/06 03:10:13;;;;;;;5.60;5.07;;;;;;;8.79;100.00;62905.03;5004338;28;20271;-71
2023/05/06 03:12:39;;;;;;;5.40;4.88;;;;;;;8.79;100.00;62904.50;5004298;28;20422;-71
2023/05/06 03:15:07;;;;;;;5.05;4.72;;;;;;;8.87;100.00;62913.28;5009770;28;20218;-72
2023/05/06 03:17:34;;;;;;;4.90;4.40;;;;;;;8.86;100.00;62911.72;5011450;28;20586;-72
2023/05/06 03:20:03;;;;;;;6.18;5.60;;;;;;;8.90;100.00;62913.84;5015994;28;20206;-72
2023/05/06 03:22:30;;;;;;;5.80;5.20;;;;;;;8.93;100.00;62919.50;5022947;28;20241;-73
2023/05/06 03:24:57;;;;;;;5.35;4.90;;;;;;;8.98;100.00;62922.13;5022038;28;20207;-72
2023/05/06 03:27:24;;;;;;;5.53;5.13;;;;;;;8.97;100.00;62921.06;5020487;28;20265;-72
2023/05/06 03:29:51;;;;;;;5.00;4.60;;;;;;;9.00;100.00;62928.75;5023437;28;20202;-71
2023/05/06 03:32:18;;;;;;;5.45;4.95;;;;;;;8.99;100.00;62925.69;5024066;28;20281;-71
2023/05/06 03:34:45;;;;;;;5.82;5.32;;;;;;;8.97;100.00;62921.06;5010880;28;20238;-72
2023/05/06 03:37:13;;;;;;;6.53;4.97;;;;;;;9.01;100.00;62927.75;5023897;28;20397;-72
2023/05/06 03:39:40;;;;;;;5.05;4.65;;;;;;;9.00;100.00;62926.22;5022466;28;20376;-71
2023/05/06 03:42:07;;;;;;;6.15;5.32;;;;;;;9.04;100.00;62930.34;5018872;28;20222;-72
2023/05/06 03:44:34;;;;;;;5.80;4.90;;;;;;;9.15;100.00;62942.22;5011551;28;20409;-71
2023/05/06 03:47:01;;;;;;;6.53;5.85;;;;;;;9.23;100.00;62952.53;5018262;28;20274;-72
2023/05/06 03:49:28;;;;;;;6.03;5.53;;;;;;;9.34;100.00;62959.31;5023949;28;20604;-73
2023/05/06 03:51:55;;;;;;;5.38;4.38;;;;;;;9.44;100.00;62969.13;5021911;28;20233;-72
2023/05/06 03:54:24;;;;;;;5.93;5.25;;;;;;;9.52;100.00;62977.44;5019572;28;20230;-72
2023/05/06 03:56:50;;;;;;;5.97;5.20;;;;;;;9.57;100.00;62985.13;5026777;28;20260;-72
2023/05/06 03:59:17;;;;;;;5.45;4.95;;;;;;;9.59;100.00;62989.22;5027803;28;20226;-72
2023/05/06 04:01:44;;;;;;;5.72;5.07;;;;;;;9.73;100.00;63001.69;5018062;28;20282;-72
2023/05/06 04:04:11;;;;;;;4.80;4.40;;;;;;;9.86;100.00;63012.06;5018459;28;20206;-71
2023/05/06 04:06:38;;;;;;;6.72;4.75;;;;;;;9.97;100.00;63026.50;5026377;28;20269;-72
2023/05/06 04:09:05;;;;;;;4.38;4.07;;;;;;;10.12;100.00;63042.03;5026060;28;20230;-72
2023/05/06 04:11:35;;;;;;;4.60;4.20;;;;;;;10.19;100.00;63051.84;5022120;28;20249;-73
2023/05/06 04:14:03;;;;;;;5.18;4.70;;;;;;;10.28;100.00;63060.63;5027098;28;20233;-72
2023/05/06 04:16:29;;;;;;;5.20;4.70;;;;;;;10.39;100.00;63069.44;5027153;28;20296;-73
2023/05/06 04:18:57;;;;;;;6.45;5.93;;;;;;;10.50;100.00;63080.84;5022422;28;20257;-72
2023/05/06 04:21:24;;;;;;;5.47;4.97;;;;;;;10.61;100.00;63092.25;5022112;28;20226;-72
2023/05/06 04:23:51;;;;;;;5.95;5.35;;;;;;;10.74;100.00;63100.06;5021006;28;20194;-72
2023/05/06 04:26:18;;;;;;;5.47;4.97;;;;;;;10.96;100.00;63127.97;5025467;28;20226;-73
2023/05/06 04:28:46;;;;;;;6.65;6.03;;;;;;;11.09;100.00;63141.41;5024961;28;20199;-72
2023/05/06 04:31:14;;;;;;;8.45;6.32;;;;;;;11.12;100.00;63147.06;5026754;28;20570;-71
2023/05/06 04:33:41;;;;;;;7.30;6.40;;;;;;;11.20;100.00;63153.31;5026821;28;20554;-72
2023/05/06 04:36:09;;;;;;;7.45;6.68;;;;;;;11.29;100.00;63160.09;5007822;28;20199;-73
2023/05/06 04:38:36;;;;;;;6.80;6.20;;;;;;;11.42;100.00;63170.50;5026186;28;20309;-73
2023/05/06 04:41:04;;;;;;;8.05;7.28;;;;;;;11.51;100.00;63182.34;5023087;28;20473;-73
2023/05/06 04:43:31;;;;;;;7.60;6.82;;;;;;;11.64;100.00;63195.84;5010548;28;20199;-72
2023/05/06 04:46:00;;;;;;;7.50;6.85;;;;;;;11.84;100.00;63219.09;5022853;28;20200;-72
2023/05/06 04:48:27;;;;;;;8.07;7.32;;;;;;;12.01;100.00;63236.22;5011812;28;20263;-73
2023/05/06 04:50:54;;;;;;;7.53;6.55;;;;;;;12.13;100.00;63249.16;5021372;28;20511;-73
2023/05/06 04:53:21;;;;;;;7.85;7.05;;;;;;;12.34;100.00;63270.94;5023697;28;20229;-72
2023/05/06 04:55:48;;;;;;;7.30;6.60;;;;;;;12.53;100.00;63287.56;5025119;28;20205;-73
2023/05/06 04:58:15;;;;;;;7.07;6.45;;;;;;;12.49;100.00;63285.97;5024169;28;20414;-73
2023/05/06 05:00:42;;;;;;;7.63;6.60;;;;;;;12.68;100.00;63308.22;5022013;28;20285;-73
2023/05/06 05:03:10;;;;;;;8.45;6.43;;;;;;;12.94;98.71;63332.13;5023143;28;20463;-73
2023/05/06 05:05:38;;;;;;;7.55;6.80;;;;;;;12.87;97.48;63327.41;5024051;28;20225;-72
2023/05/06 05:08:05;;;;;;;7.85;7.07;;;;;;;12.63;96.87;63300.50;5019861;28;20421;-72
2023/05/06 05:10:32;;;;;;;7.70;6.90;;;;;;;12.47;99.55;63276.75;5023499;28;20237;-72
2023/05/06 05:12:59;;;;;;;8.30;7.50;;;;;;;12.48;100.00;63288.00;5023406;28;20229;-71
2023/05/06 05:15:26;;;;;;;7.28;6.57;;;;;;;12.43;100.00;63275.16;5022533;28;20285;-72
2023/05/06 05:17:54;;;;;;;9.05;7.05;;;;;;;12.58;98.52;63290.19;5022306;28;20227;-72
2023/05/06 05:20:23;;;;;;;7.30;6.70;;;;;;;12.66;97.10;63304.13;5024596;28;20203;-72
2023/05/06 05:22:49;;;;;;;6.78;6.07;;;;;;;12.72;98.21;63310.34;5023617;28;20569;-73
2023/05/06 05:25:17;;;;;;;8.48;6.38;;;;;;;13.20;96.14;63359.09;5026027;28;20402;-72
2023/05/06 05:27:44;;;;;;;7.32;6.53;;;;;;;13.39;93.63;63376.75;5021920;28;20226;-72
2023/05/06 05:30:12;;;;;;;6.40;5.80;;;;;;;13.35;92.56;63375.19;5021534;28;20203;-73
2023/05/06 05:32:39;;;;;;;8.65;7.43;;;;;;;13.24;97.97;63363.25;5025110;28;20344;-73
2023/05/06 05:35:08;;;;;;;11.45;8.00;;;;;;;13.25;100.00;63361.72;5021063;28;20238;-73
2023/05/06 05:37:37;;;;;;;10.85;8.88;;;;;;;13.22;100.00;63361.69;5024047;28;20233;-73
2023/05/06 05:40:05;;;;;;;9.90;8.85;;;;;;;12.98;100.00;63331.16;5021558;28;20274;-72
2023/05/06 05:42:32;;;;;;;9.55;8.65;;;;;;;13.16;100.00;63354.94;5028882;28;20223;-72
2023/05/06 05:44:59;;;;;;;12.77;8.93;;;;;;;13.31;100.00;63371.03;5021609;28;20199;-72
2023/05/06 05:47:26;;;;;;;11.52;9.00;;;;;;;13.45;98.03;63385.03;5023971;28;20266;-72
2023/05/06 05:49:54;;;;;;;11.43;8.48;;;;;;;13.43;97.64;63380.91;5025130;28;20230;-71
2023/05/06 05:52:21;;;;;;;12.52;8.80;;;;;;;13.31;100.00;63367.94;5025699;28;20218;-72
2023/05/06 05:54:50;;;;;;;9.45;8.55;;;;;;;13.49;98.15;63391.75;5019362;28;20407;-74
2023/05/06 05:57:17;;;;;;;10.65;7.18;;;;;;;13.47;98.61;63389.66;5022947;28;20226;-74
2023/05/06 05:59:45;;;;;;;10.05;8.05;;;;;;;13.26;99.29;63365.31;5022977;28;20301;-73
2023/05/06 06:02:12;;;;;;;12.55;8.60;;;;;;;13.25;100.00;63364.28;5023494;28;20531;-72
2023/05/06 06:04:38;;;;;;;11.60;8.38;;;;;;;13.22;100.00;63361.69;5026187;28;20518;-74
2023/05/06 06:07:06;;;;;;;12.30;9.10;;;;;;;13.12;100.00;63355.91;5024973;28;20218;-73
2023/05/06 06:09:32;;;;;;;14.45;9.55;;;;;;;13.11;100.00;63347.22;5025798;28;20198;-74
2023/05/06 06:12:02;;;;;;;13.95;8.95;;;;;;;13.17;100.00;63355.97;5015160;28;20249;-74
2023/05/06 06:14:28;;;;;;;11.90;8.80;;;;;;;13.29;100.00;63366.41;5006505;28;20221;-74
2023/05/06 06:16:56;;;;;;;11.27;9.52;;;;;;;13.64;100.00;63407.31;5026771;28;20229;-73
2023/05/06 06:19:23;;;;;;;9.35;8.00;;;;;;;13.77;100.00;63421.31;5024822;28;20466;-74
2023/05/06 06:21:50;;;;;;;10.38;6.63;;;;;;;13.71;96.99;63415.09;5023915;28;20566;-74
2023/05/06 06:24:18;;;;;;;10.45;8.75;;;;;;;13.40;100.00;63380.38;5025414;28;20237;-74
2023/05/06 06:26:45;;;;;;;13.80;8.65;;;;;;;13.08;100.00;63346.66;5024693;28;20219;-73
2023/05/06 06:29:13;;;;;;;10.82;9.35;;;;;;;13.25;100.00;63364.28;5022030;28;20222;-73
2023/05/06 06:31:40;;;;;;;12.00;9.02;;;;;;;13.44;99.82;63384.50;5006570;28;20405;-73
2023/05/06 06:34:08;;;;;;;10.32;9.15;;;;;;;13.53;98.67;63391.28;5018516;28;20298;-74
2023/05/06 06:36:35;;;;;;;12.05;8.73;;;;;;;13.55;98.58;63395.94;5016717;28;20219;-74
2023/05/06 06:39:03;;;;;;;10.93;8.18;;;;;;;13.72;98.08;63416.13;5009223;28;20402;-73
2023/05/06 06:41:30;;;;;;;10.60;8.48;;;;;;;13.80;98.52;63421.88;5005184;28;20234;-74
2023/05/06 06:43:57;;;;;;;10.57;8.07;;;;;;;13.96;97.60;63437.97;5005708;28;20210;-73
2023/05/06 06:46:26;;;;;;;11.38;9.27;;;;;;;14.05;97.10;63444.25;5006886;28;20465;-73
2023/05/06 06:48:54;;;;;;;10.77;8.57;;;;;;;14.14;97.43;63464.34;5007280;28;20203;-74
2023/05/06 06:51:21;;;;;;;14.00;9.48;;;;;;;13.80;96.81;63421.38;5005093;28;20219;-74
2023/05/06 06:53:48;;;;;;;13.55;9.52;;;;;;;13.54;100.00;63396.94;5004127;28;20282;-74
2023/05/06 06:56:15;;;;;;;12.13;9.57;;;;;;;13.40;100.00;63380.38;5004391;28;20219;-74
2023/05/06 06:58:42;;;;;;;9.35;8.43;;;;;;;13.68;100.00;63409.41;5020123;28;20557;-74
2023/05/06 07:01:10;;;;;;;8.23;7.43;;;;;;;13.80;94.91;63421.38;5025753;28;20201;-73
2023/05/06 07:03:38;;;;;;;8.43;7.60;;;;;;;13.69;95.77;63405.34;5024451;28;20198;-74
2023/05/06 07:06:05;;;;;;;8.48;7.68;;;;;;;13.91;98.02;63430.22;5015448;28;20245;-74
2023/05/06 07:08:32;;;;;;;9.27;7.32;;;;;;;14.28;95.51;63465.56;5013104;28;20297;-74
2023/05/06 07:10:59;;;;;;;8.88;7.18;;;;;;;14.66;89.32;63510.16;5004299;28;20203;-74
2023/05/06 07:13:27;;;;;;;7.25;6.55;;;;;;;14.67;86.44;63511.72;5003836;28;20207;-74
2023/05/06 07:15:54;;;;;;;6.90;5.95;;;;;;;14.78;87.39;63525.72;5003795;28;20243;-74
2023/05/06 07:18:21;;;;;;;10.45;7.05;;;;;;;15.05;87.86;63553.75;5013321;28;20206;-74
2023/05/06 07:20:50;;;;;;;6.82;6.07;;;;;;;15.24;84.03;63565.28;5021951;28;20197;-72
2023/05/06 07:23:17;;;;;;;6.55;5.90;;;;;;;15.62;83.00;63606.84;5022407;28;20253;-74
2023/05/06 07:25:45;;;;;;;6.88;5.68;;;;;;;15.61;78.86;63611.47;5023727;28;20240;-75
2023/05/06 07:28:12;;;;;;;6.47;5.90;;;;;;;15.89;78.37;63638.00;5008856;28;20226;-74
2023/05/06 07:30:39;;;;;;;8.57;6.70;;;;;;;16.16;73.36;63668.13;5004587;28;20266;-73
2023/05/06 07:33:06;;;;;;;6.70;5.97;;;;;;;16.01;72.92;63653.03;5010403;28;20233;-74
2023/05/06 07:35:33;;;;;;;6.85;6.25;;;;;;;16.37;73.87;63689.97;5023448;28;20229;-74
2023/05/06 07:38:02;;;;;;;5.55;5.05;;;;;;;16.66;70.72;63715.03;5021705;28;20475;-74
2023/05/06 07:40:29;;;;;;;5.55;5.15;;;;;;;16.86;65.58;63740.47;5024903;28;20194;-73
2023/05/06 07:42:56;;;;;;;5.82;5.38;;;;;;;17.03;69.13;63761.22;5009211;28;20234;-73
2023/05/06 07:45:24;;;;;;;7.55;5.18;;;;;;;17.26;67.71;63780.03;5004523;28;20226;-75
2023/05/06 07:47:52;;;;;;;6.40;4.90;;;;;;;17.47;64.94;63806.53;5014951;28;20218;-74
2023/05/06 07:50:19;;;;;;;5.75;5.00;;;;;;;17.50;65.49;63801.44;5021436;28;20226;-73
2023/05/06 07:52:47;;;;;;;5.60;5.07;;;;;;;17.49;63.28;63802.97;5004005;28;20210;-73
2023/05/06 07:55:15;;;;;;;7.43;5.57;;;;;;;17.41;61.54;63792.03;5004613;28;20474;-72
2023/05/06 07:57:42;;;;;;;5.65;5.10;;;;;;;17.44;63.70;63800.84;5023787;28;20809;-74
2023/05/06 08:00:11;;;;;;;5.10;4.65;;;;;;;17.57;65.26;63811.28;5022193;28;20198;-73
2023/05/06 08:02:42;;;;;;;6.90;5.65;;;;;;;17.96;63.90;63857.06;5024267;28;20222;-73
2023/05/06 08:05:12;;;;;;;6.00;5.43;;;;;;;18.17;61.37;63873.78;5014777;28;20198;-73
2023/05/06 08:07:39;;;;;;;5.63;5.15;;;;;;;18.29;59.23;63884.22;5014663;28;20276;-75
2023/05/06 08:10:08;;;;;;;6.47;5.30;;;;;;;18.53;58.43;63911.31;5007614;28;20237;-74
2023/05/06 08:12:37;;;;;;;5.60;5.13;;;;;;;18.68;59.59;63929.53;5019320;28;20294;-74
2023/05/06 08:15:04;;;;;;;5.35;4.95;;;;;;;18.60;58.56;63923.78;5023657;28;20233;-74
2023/05/06 08:17:32;;;;;;;6.93;5.65;;;;;;;18.16;60.77;63870.69;5022488;28;20325;-74
2023/05/06 08:19:59;;;;;;;6.20;5.30;;;;;;;18.15;61.09;63869.13;5019974;28;20199;-73
2023/05/06 08:22:26;;;;;;;7.45;6.65;;;;;;;17.99;59.53;63855.56;5011558;28;20226;-74
2023/05/06 08:24:53;;;;;;;7.00;5.80;;;;;;;17.96;60.42;63855.00;5023447;28;20202;-73
2023/05/06 08:27:20;;;;;;;5.97;5.55;;;;;;;17.91;59.95;63849.28;5013847;28;20586;-74
2023/05/06 08:29:49;;;;;;;6.35;5.75;;;;;;;18.02;59.14;63858.16;5003694;28;20195;-73
2023/05/06 08:32:16;;;;;;;7.50;6.57;;;;;;;17.79;59.57;63831.63;5004074;28;20404;-73
2023/05/06 08:34:44;;;;;;;8.45;6.13;;;;;;;17.59;62.79;63810.78;5021875;28;20233;-74
2023/05/06 08:37:11;;;;;;;7.93;6.95;;;;;;;17.66;63.60;63820.66;5007861;28;20219;-74
2023/05/06 08:39:38;;;;;;;7.40;6.70;;;;;;;17.38;63.77;63794.06;5003533;28;20266;-74
2023/05/06 08:42:06;;;;;;;6.75;6.15;;;;;;;17.53;62.22;63810.22;5003728;28;20235;-76
2023/05/06 08:44:33;;;;;;;6.60;5.40;;;;;;;17.82;62.78;63840.44;5008446;28;20261;-74
2023/05/06 08:47:01;;;;;;;7.97;6.63;;;;;;;18.19;61.32;63875.84;5025963;28;20214;-74
2023/05/06 08:49:29;;;;;;;10.30;6.95;;;;;;;18.25;58.52;63882.63;5022565;28;20381;-73
2023/05/06 08:51:57;;;;;;;7.75;6.70;;;;;;;18.09;58.87;63868.53;5027014;28;20458;-77
2023/05/06 08:54:25;;;;;;;6.85;6.15;;;;;;;18.44;57.77;63904.50;5016981;28;20206;-75
2023/05/06 08:56:53;;;;;;;6.47;5.90;;;;;;;18.36;56.95;63894.09;5023841;28;20432;-73
2023/05/06 08:59:24;;;;;;;8.45;6.53;;;;;;;17.65;58.57;63819.63;5024911;28;20200;-75
2023/05/06 09:01:52;;;;;;;6.78;6.18;;;;;;;17.30;59.59;63784.22;5007248;28;20229;-72
2023/05/06 09:04:20;;;;;;;10.05;6.57;;;;;;;17.08;62.82;63761.28;5020032;28;20269;-73
2023/05/06 09:06:47;;;;;;;7.68;6.53;;;;;;;17.34;61.97;63785.78;5012792;28;20237;-74
2023/05/06 09:09:15;;;;;;;6.95;6.03;;;;;;;17.58;62.64;63815.44;5007322;28;20221;-74
2023/05/06 09:11:42;;;;;;;7.20;5.82;;;;;;;17.85;62.24;63837.88;5006997;28;20539;-74
2023/05/06 09:14:11;;;;;;;7.65;6.93;;;;;;;18.26;58.22;63878.50;5006640;28;20262;-74
2023/05/06 09:16:39;;;;;;;7.60;5.88;;;;;;;18.66;55.11;63924.31;5006542;28;20238;-74
2023/05/06 09:19:06;;;;;;;6.78;5.93;;;;;;;19.05;54.39;63970.16;5011251;28;20194;-73
2023/05/06 09:21:36;;;;;;;6.88;6.28;;;;;;;19.28;53.44;63992.06;5026414;28;20301;-73
2023/05/06 09:24:05;;;;;;;7.03;6.50;;;;;;;18.60;56.00;63920.66;5018766;28;20257;-74
2023/05/06 09:26:33;;;;;;;8.57;6.68;;;;;;;18.45;55.23;63902.97;5006480;28;20420;-73
2023/05/06 09:29:01;;;;;;;8.65;6.45;;;;;;;18.00;56.85;63861.75;5006564;28;20365;-74
2023/05/06 09:31:28;;;;;;;6.68;6.18;;;;;;;18.12;56.79;63871.16;5020226;28;20297;-74
2023/05/06 09:33:58;;;;;;;9.05;6.82;;;;;;;17.95;57.51;63853.44;5023799;28;20286;-75
2023/05/06 09:36:26;;;;;;;8.13;7.30;;;;;;;18.49;55.20;63909.72;5026392;28;20234;-74
2023/05/06 09:38:55;;;;;;;7.60;6.90;;;;;;;19.13;54.06;63976.44;5023663;28;20194;-73
2023/05/06 09:41:25;;;;;;;6.35;5.82;;;;;;;19.47;52.94;64011.91;5007240;28;20219;-74
2023/05/06 09:43:53;;;;;;;6.60;5.82;;;;;;;19.94;50.65;64057.28;5014174;28;20198;-74
2023/05/06 09:46:21;;;;;;;7.25;6.07;;;;;;;19.93;49.48;64051.09;5013590;28;20233;-72
2023/05/06 09:48:52;;;;;;;7.15;6.57;;;;;;;19.89;51.04;64052.06;5011504;28;20266;-74
2023/05/06 09:51:21;;;;;;;7.05;6.45;;;;;;;20.25;50.72;64092.78;5006238;28;20573;-73
2023/05/06 09:53:48;;;;;;;7.32;6.00;;;;;;;20.59;49.41;64125.13;5019637;28;20203;-74
2023/05/06 09:56:17;;;;;;;7.10;5.00;;;;;;;20.77;49.66;64143.41;5019662;28;20245;-73
2023/05/06 09:58:46;;;;;;;6.05;5.55;;;;;;;20.92;50.02;64161.66;5021266;28;20221;-74
2023/05/06 10:01:14;;;;;;;6.68;5.25;;;;;;;20.93;49.05;64157.53;5023825;28;20527;-74
2023/05/06 10:03:42;;;;;;;6.13;5.47;;;;;;;20.26;50.27;64088.63;5024699;28;20220;-74
2023/05/06 10:06:11;;;;;;;5.43;4.88;;;;;;;20.31;49.90;64104.19;5013905;28;20207;-74
2023/05/06 10:08:40;;;;;;;5.72;5.22;;;;;;;20.45;49.08;64113.63;5018617;28;20210;-73
2023/05/06 10:11:07;;;;;;;5.63;5.20;;;;;;;19.75;49.29;64040.06;5021880;28;20521;-74
2023/05/06 10:13:38;;;;;;;6.45;5.57;;;;;;;20.46;49.62;64111.56;5021263;28;20406;-74
2023/05/06 10:16:07;;;;;;;6.63;6.10;;;;;;;21.05;48.13;64173.19;5018114;28;20245;-74
2023/05/06 10:18:37;;;;;;;7.70;5.05;;;;;;;21.36;46.22;64208.16;5023984;28;20190;-75
2023/05/06 10:21:10;;;;;;;7.78;5.80;;;;;;;21.45;46.06;64220.13;5022153;28;20206;-75
2023/05/06 10:23:44;;;;;;;6.43;5.75;;;;;;;21.12;47.11;64177.91;5024423;28;20404;-75
2023/05/06 10:26:13;;;;;;;5.80;5.40;;;;;;;21.20;47.72;64188.31;5020623;28;20221;-74
2023/05/06 10:28:43;;;;;;;6.15;5.65;;;;;;;20.51;48.84;64119.91;5028519;28;20219;-74
2023/05/06 10:31:12;;;;;;;6.10;5.20;;;;;;;20.32;48.05;64096.97;5025558;28;20226;-74
2023/05/06 10:33:40;;;;;;;5.88;5.05;;;;;;;20.16;48.91;64085.44;5021008;28;20198;-75
2023/05/06 10:36:19;;;;;;;6.07;4.97;;;;;;;20.35;50.08;64100.63;5018628;28;20230;-76
2023/05/06 10:38:49;;;;;;;6.63;4.75;;;;;;;20.35;50.55;64100.09;5017997;28;20209;-74
2023/05/06 10:41:18;;;;;;;4.78;4.35;;;;;;;20.60;48.84;64129.28;5025484;28;20222;-75
2023/05/06 10:43:48;;;;;;;6.50;3.85;;;;;;;20.93;48.59;64162.72;5015729;28;20205;-74
2023/05/06 10:46:16;;;;;;;4.00;3.70;;;;;;;20.91;46.62;64161.16;5025920;28;20225;-74
2023/05/06 10:49:18;;;;;;;3.72;3.42;;;;;;;20.65;47.41;64131.41;5016925;28;20202;-75
2023/05/06 10:51:45;;;;;;;3.92;3.60;;;;;;;21.02;45.75;64174.72;5008883;28;20225;-75
2023/05/06 10:54:22;;;;;;;4.03;3.63;;;;;;;21.40;46.03;64214.91;5005304;28;20203;-75
2023/05/06 10:57:10;;;;;;;3.13;2.97;;;;;;;21.69;44.89;64239.50;5016541;28;20284;-75
2023/05/06 10:59:46;;;;;;;4.07;3.67;;;;;;;21.85;44.25;64256.25;5024502;28;20193;-76
2023/05/06 11:02:13;;;;;;;3.25;3.15;;;;;;;21.51;42.16;64220.69;5008884;28;20230;-77
2023/05/06 11:04:40;;;;;;;5.25;3.22;;;;;;;21.17;42.83;64192.97;5025711;28;20198;-74
2023/05/06 11:07:09;;;;;;;4.25;3.38;;;;;;;20.68;44.40;64135.06;5023287;28;20289;-75
2023/05/06 11:09:54;;;;;;;3.75;3.50;;;;;;;20.61;43.95;64132.41;5018199;28;20209;-75
2023/05/06 11:12:21;;;;;;;3.53;3.22;;;;;;;20.51;44.47;64119.38;5021910;28;20364;-74
2023/05/06 11:14:50;;;;;;;3.65;3.33;;;;;;;20.73;44.62;64142.34;5025017;28;20225;-76
2023/05/06 11:17:31;;;;;;;3.47;3.13;;;;;;;20.39;45.46;64109.44;5025748;28;20234;-75
2023/05/06 11:20:19;;;;;;;6.00;5.53;;;;;;;20.65;45.82;64131.41;5018473;28;20212;-74
2023/05/06 11:22:46;;;;;;;3.30;3.10;;;;;;;20.88;44.71;64158.00;5023262;28;20253;-75
2023/05/06 11:25:13;;;;;;;3.03;2.92;;;;;;;20.75;44.00;64143.91;5020611;28;20230;-76
2023/05/06 11:27:40;;;;;;;2.95;2.75;;;;;;;20.86;43.76;64153.34;5019141;28;20219;-75
2023/05/06 11:30:14;;;;;;;3.55;2.83;;;;;;;21.22;42.83;64190.41;5020283;28;20201;-74
2023/05/06 11:32:43;;;;;;;2.92;2.80;;;;;;;21.32;42.55;64198.78;5021835;28;20210;-75
2023/05/06 11:35:12;;;;;;;4.07;2.72;;;;;;;21.85;42.71;64258.31;5021280;28;20216;-76
2023/05/06 11:37:42;;;;;;;3.13;2.95;;;;;;;22.13;43.09;64288.09;5019019;28;20256;-75